Kingston to Cornwall: Past 24 Hour Conditions
Welland-Pelham
12:00 AM EDT 19 April 2026| Date / Time (EDT) |
Wind(knots) | Conditions | Visibility(km) | Pressure(kPa) | Air temp(°C) | Relative humidity(%) | Dew point(°C) | Humidex |
|---|---|---|---|---|---|---|---|---|
| 19 April 2026 | ||||||||
| 0:00 | W 8 | N/A | N/A | 101.2 | 10 | 79 | 6 | * |
| 18 April 2026 | ||||||||
| 23:00 | WNW 10 | N/A | N/A | 101.2 | 10 | 83 | 8 | * |
| 22:00 | WNW 10 | N/A | N/A | 101.1 | 11 | 89 | 9 | * |
| 21:00 | SW 4 | N/A | N/A | 101.0 | 11 | 100 | 11 | * |
| 20:00 | SW 3 | N/A | N/A | 100.8 | 11 | 100 | 11 | * |
| 19:00 | SW 5 | N/A | N/A | 100.7 | 11 | 100 | 11 | * |
| 18:00 | SSW 9 | N/A | N/A | 100.6 | 11 | 100 | 11 | * |
| 17:00 | S 8 | N/A | N/A | 100.5 | 15 | 100 | 15 | * |
| 16:00 | W 11 | N/A | N/A | 100.5 | 18 | 82 | 14 | * |
| 15:00 | WSW 4 | N/A | N/A | 100.5 | 18 | 81 | 14 | * |
| 14:00 | W 15 | N/A | N/A | 100.5 | 22 | 51 | 11 | 24 |
| 13:00 | S 10 gusts 23 | N/A | N/A | 100.5 | 24 | 44 | 11 | 26 |
| 12:00 | S 16 gusts 24 | N/A | N/A | 100.5 | 22 | 45 | 10 | 24 |
| 11:00 | S 10 gusts 20 | N/A | N/A | 100.6 | 19 | 53 | 10 | * |
| 10:00 | S 11 gusts 17 | N/A | N/A | 100.7 | 19 | 56 | 10 | * |
| 9:00 | S 9 gusts 16 | N/A | N/A | 100.8 | 17 | 61 | 10 | * |
| 8:00 | SSE 8 | N/A | N/A | 100.8 | 16 | 66 | 10 | * |
| 7:00 | SSE 5 | N/A | N/A | 100.9 | 15 | 70 | 9 | * |
| 6:00 | SSE 3 | N/A | N/A | 101.0 | 13 | 75 | 9 | * |
| 5:00 | SSE 4 | N/A | N/A | 101.1 | 13 | 80 | 10 | * |
| 4:00 | SSE 2 | N/A | N/A | 101.1 | 12 | 92 | 11 | * |
| 3:00 | ESE 2 | N/A | N/A | 101.2 | 10 | 100 | 10 | * |
| 2:00 | ESE 3 | N/A | N/A | 101.3 | 11 | 100 | 11 | * |
| 1:00 | ENE 2 | N/A | N/A | 101.4 | 10 | 100 | 10 | * |
| 0:00 | calm | N/A | N/A | 101.4 | 10 | 100 | 10 | * |
If you require additional historical weather information, please visit Climate Data Online
Zoom-in to make a selection
Legend:
Great Lakes - Lake Huron Area
Another Region
Features
Colour-coded weather alerts
Learn more about weather alerting in Canada
- Date modified: